sensor_id;sensor_type;location;lat;lon;timestamp;temperature;humidity
15328;DHT22;7764;51.430;6.840;2023-04-10T00:01:58;10.10;99.90
15328;DHT22;7764;51.430;6.840;2023-04-10T00:04:24;10.20;99.90
15328;DHT22;7764;51.430;6.840;2023-04-10T00:06:52;10.10;99.90
15328;DHT22;7764;51.430;6.840;2023-04-10T00:09:21;10.10;99.90
15328;DHT22;7764;51.430;6.840;2023-04-10T00:11:48;10.10;99.90
15328;DHT22;7764;51.430;6.840;2023-04-10T00:14:14;10.10;99.90
15328;DHT22;7764;51.430;6.840;2023-04-10T00:16:47;10.10;99.90
15328;DHT22;7764;51.430;6.840;2023-04-10T00:19:14;10.20;99.90
15328;DHT22;7764;51.430;6.840;2023-04-10T00:21:41;10.20;99.90
15328;DHT22;7764;51.430;6.840;2023-04-10T00:24:08;10.20;99.90
15328;DHT22;7764;51.430;6.840;2023-04-10T00:26:36;10.10;99.90
15328;DHT22;7764;51.430;6.840;2023-04-10T00:29:03;10.10;99.90
15328;DHT22;7764;51.430;6.840;2023-04-10T00:31:31;10.10;99.90
15328;DHT22;7764;51.430;6.840;2023-04-10T00:33:57;10.10;99.90
15328;DHT22;7764;51.430;6.840;2023-04-10T00:36:24;10.10;99.90
15328;DHT22;7764;51.430;6.840;2023-04-10T00:38:51;10.10;99.90
15328;DHT22;7764;51.430;6.840;2023-04-10T00:41:18;10.10;99.90
15328;DHT22;7764;51.430;6.840;2023-04-10T00:43:46;10.10;99.90
15328;DHT22;7764;51.430;6.840;2023-04-10T00:46:13;10.10;99.90
15328;DHT22;7764;51.430;6.840;2023-04-10T00:48:40;10.10;99.90
15328;DHT22;7764;51.430;6.840;2023-04-10T00:51:08;10.10;99.90
15328;DHT22;7764;51.430;6.840;2023-04-10T00:53:35;10.10;99.90
15328;DHT22;7764;51.430;6.840;2023-04-10T00:56:02;10.20;99.90
15328;DHT22;7764;51.430;6.840;2023-04-10T00:58:29;10.20;99.90
15328;DHT22;7764;51.430;6.840;2023-04-10T01:00:57;10.20;99.90
15328;DHT22;7764;51.430;6.840;2023-04-10T01:03:24;10.20;99.90
15328;DHT22;7764;51.430;6.840;2023-04-10T01:06:00;10.30;99.90
15328;DHT22;7764;51.430;6.840;2023-04-10T01:08:35;10.30;99.90
15328;DHT22;7764;51.430;6.840;2023-04-10T01:11:08;10.30;99.90
15328;DHT22;7764;51.430;6.840;2023-04-10T01:13:42;10.20;99.90
15328;DHT22;7764;51.430;6.840;2023-04-10T01:16:17;10.30;99.90
15328;DHT22;7764;51.430;6.840;2023-04-10T01:18:49;10.30;99.90
15328;DHT22;7764;51.430;6.840;2023-04-10T01:21:20;10.30;99.90
15328;DHT22;7764;51.430;6.840;2023-04-10T01:24:12;10.30;99.90
15328;DHT22;7764;51.430;6.840;2023-04-10T01:26:55;10.30;99.90
15328;DHT22;7764;51.430;6.840;2023-04-10T01:29:28;10.30;99.90
15328;DHT22;7764;51.430;6.840;2023-04-10T01:31:58;10.30;99.90
15328;DHT22;7764;51.430;6.840;2023-04-10T01:34:32;10.30;99.90
15328;DHT22;7764;51.430;6.840;2023-04-10T01:37:02;10.30;99.90
15328;DHT22;7764;51.430;6.840;2023-04-10T01:39:32;10.30;99.90
15328;DHT22;7764;51.430;6.840;2023-04-10T01:42:02;10.20;99.90
15328;DHT22;7764;51.430;6.840;2023-04-10T01:44:33;10.20;99.90
15328;DHT22;7764;51.430;6.840;2023-04-10T01:47:04;10.20;99.90
15328;DHT22;7764;51.430;6.840;2023-04-10T01:49:33;10.20;99.90
15328;DHT22;7764;51.430;6.840;2023-04-10T01:52:00;10.20;99.90
15328;DHT22;7764;51.430;6.840;2023-04-10T01:54:29;10.20;99.90
15328;DHT22;7764;51.430;6.840;2023-04-10T01:56:57;10.20;99.90
15328;DHT22;7764;51.430;6.840;2023-04-10T01:59:25;10.20;99.90
15328;DHT22;7764;51.430;6.840;2023-04-10T02:01:56;10.20;99.90
15328;DHT22;7764;51.430;6.840;2023-04-10T02:04:23;10.20;99.90
15328;DHT22;7764;51.430;6.840;2023-04-10T02:06:56;10.10;99.90
15328;DHT22;7764;51.430;6.840;2023-04-10T02:09:39;10.10;99.90
15328;DHT22;7764;51.430;6.840;2023-04-10T02:12:10;10.10;99.90
15328;DHT22;7764;51.430;6.840;2023-04-10T02:14:42;10.10;99.90
15328;DHT22;7764;51.430;6.840;2023-04-10T02:17:13;10.10;99.90
15328;DHT22;7764;51.430;6.840;2023-04-10T02:19:42;10.10;99.90
15328;DHT22;7764;51.430;6.840;2023-04-10T02:22:11;10.10;99.90
15328;DHT22;7764;51.430;6.840;2023-04-10T02:24:38;10.10;99.90
15328;DHT22;7764;51.430;6.840;2023-04-10T02:27:05;10.00;99.90
15328;DHT22;7764;51.430;6.840;2023-04-10T02:29:31;10.00;99.90
15328;DHT22;7764;51.430;6.840;2023-04-10T02:31:58;10.00;99.90
15328;DHT22;7764;51.430;6.840;2023-04-10T02:34:26;10.00;99.90
15328;DHT22;7764;51.430;6.840;2023-04-10T02:36:53;9.90;99.90
15328;DHT22;7764;51.430;6.840;2023-04-10T02:39:20;9.90;99.90
15328;DHT22;7764;51.430;6.840;2023-04-10T02:41:47;9.90;99.90
15328;DHT22;7764;51.430;6.840;2023-04-10T02:44:14;9.90;99.90
15328;DHT22;7764;51.430;6.840;2023-04-10T02:46:41;9.90;99.90
15328;DHT22;7764;51.430;6.840;2023-04-10T02:49:07;9.90;99.90
15328;DHT22;7764;51.430;6.840;2023-04-10T02:51:36;9.90;99.90
15328;DHT22;7764;51.430;6.840;2023-04-10T02:54:03;9.90;99.90
15328;DHT22;7764;51.430;6.840;2023-04-10T02:56:32;9.90;99.90
15328;DHT22;7764;51.430;6.840;2023-04-10T02:58:59;9.90;99.90
15328;DHT22;7764;51.430;6.840;2023-04-10T03:01:26;9.80;99.90
15328;DHT22;7764;51.430;6.840;2023-04-10T03:03:52;9.80;99.90
15328;DHT22;7764;51.430;6.840;2023-04-10T03:06:19;9.80;99.90
15328;DHT22;7764;51.430;6.840;2023-04-10T03:08:49;9.70;99.90
15328;DHT22;7764;51.430;6.840;2023-04-10T03:11:16;9.70;99.90
15328;DHT22;7764;51.430;6.840;2023-04-10T03:13:43;9.70;99.90
15328;DHT22;7764;51.430;6.840;2023-04-10T03:16:09;9.70;99.90
15328;DHT22;7764;51.430;6.840;2023-04-10T03:18:36;9.70;99.90
15328;DHT22;7764;51.430;6.840;2023-04-10T03:21:03;9.70;99.90
15328;DHT22;7764;51.430;6.840;2023-04-10T03:23:30;9.80;99.90
15328;DHT22;7764;51.430;6.840;2023-04-10T03:25:59;9.70;99.90
15328;DHT22;7764;51.430;6.840;2023-04-10T03:28:27;9.70;99.90
15328;DHT22;7764;51.430;6.840;2023-04-10T03:30:55;9.70;99.90
15328;DHT22;7764;51.430;6.840;2023-04-10T03:33:22;9.70;99.90
15328;DHT22;7764;51.430;6.840;2023-04-10T03:35:48;9.70;99.90
15328;DHT22;7764;51.430;6.840;2023-04-10T03:38:15;9.70;99.90
15328;DHT22;7764;51.430;6.840;2023-04-10T03:40:42;9.60;99.90
15328;DHT22;7764;51.430;6.840;2023-04-10T03:43:10;9.60;99.90
15328;DHT22;7764;51.430;6.840;2023-04-10T03:45:37;9.60;99.90
15328;DHT22;7764;51.430;6.840;2023-04-10T03:48:04;9.60;99.90
15328;DHT22;7764;51.430;6.840;2023-04-10T03:50:31;9.60;99.90
15328;DHT22;7764;51.430;6.840;2023-04-10T03:52:58;9.60;99.90
15328;DHT22;7764;51.430;6.840;2023-04-10T03:55:25;9.60;99.90
15328;DHT22;7764;51.430;6.840;2023-04-10T03:57:52;9.60;99.90
15328;DHT22;7764;51.430;6.840;2023-04-10T04:00:20;9.60;99.90
15328;DHT22;7764;51.430;6.840;2023-04-10T04:02:47;9.60;99.90
15328;DHT22;7764;51.430;6.840;2023-04-10T04:05:15;9.60;99.90
15328;DHT22;7764;51.430;6.840;2023-04-10T04:07:42;9.60;99.90
15328;DHT22;7764;51.430;6.840;2023-04-10T04:10:09;9.50;99.90
15328;DHT22;7764;51.430;6.840;2023-04-10T04:12:35;9.50;99.90
15328;DHT22;7764;51.430;6.840;2023-04-10T04:15:03;9.50;99.90
15328;DHT22;7764;51.430;6.840;2023-04-10T04:17:31;9.50;99.90
15328;DHT22;7764;51.430;6.840;2023-04-10T04:19:58;9.50;99.90
15328;DHT22;7764;51.430;6.840;2023-04-10T04:22:25;9.50;99.90
15328;DHT22;7764;51.430;6.840;2023-04-10T04:24:51;9.50;99.90
15328;DHT22;7764;51.430;6.840;2023-04-10T04:27:18;9.50;99.90
15328;DHT22;7764;51.430;6.840;2023-04-10T04:29:46;9.50;99.90
15328;DHT22;7764;51.430;6.840;2023-04-10T04:32:13;9.50;99.90
15328;DHT22;7764;51.430;6.840;2023-04-10T04:34:41;9.50;99.90
15328;DHT22;7764;51.430;6.840;2023-04-10T04:37:08;9.50;99.90
15328;DHT22;7764;51.430;6.840;2023-04-10T04:39:35;9.50;99.90
15328;DHT22;7764;51.430;6.840;2023-04-10T04:42:01;9.50;99.90
15328;DHT22;7764;51.430;6.840;2023-04-10T04:44:28;9.50;99.90
15328;DHT22;7764;51.430;6.840;2023-04-10T04:46:55;9.50;99.90
15328;DHT22;7764;51.430;6.840;2023-04-10T04:49:22;9.50;99.90
15328;DHT22;7764;51.430;6.840;2023-04-10T04:51:50;9.50;99.90
15328;DHT22;7764;51.430;6.840;2023-04-10T04:54:17;9.50;99.90
15328;DHT22;7764;51.430;6.840;2023-04-10T04:56:44;9.50;99.90
15328;DHT22;7764;51.430;6.840;2023-04-10T04:59:11;9.50;99.90
15328;DHT22;7764;51.430;6.840;2023-04-10T05:01:37;9.50;99.90
15328;DHT22;7764;51.430;6.840;2023-04-10T05:04:04;9.50;99.90
15328;DHT22;7764;51.430;6.840;2023-04-10T05:06:31;9.60;99.90
15328;DHT22;7764;51.430;6.840;2023-04-10T05:08:59;9.60;99.90
15328;DHT22;7764;51.430;6.840;2023-04-10T05:11:26;9.60;99.90
15328;DHT22;7764;51.430;6.840;2023-04-10T05:13:53;9.60;99.90
15328;DHT22;7764;51.430;6.840;2023-04-10T05:16:20;9.70;99.90
15328;DHT22;7764;51.430;6.840;2023-04-10T05:18:46;9.80;99.90
15328;DHT22;7764;51.430;6.840;2023-04-10T05:21:13;9.80;99.90
15328;DHT22;7764;51.430;6.840;2023-04-10T05:23:40;9.80;99.90
15328;DHT22;7764;51.430;6.840;2023-04-10T05:26:08;9.90;99.90
15328;DHT22;7764;51.430;6.840;2023-04-10T05:28:35;9.90;99.90
15328;DHT22;7764;51.430;6.840;2023-04-10T05:31:02;9.90;99.90
15328;DHT22;7764;51.430;6.840;2023-04-10T05:33:29;10.00;99.90
15328;DHT22;7764;51.430;6.840;2023-04-10T05:35:56;10.00;99.90
15328;DHT22;7764;51.430;6.840;2023-04-10T05:38:23;10.10;99.90
15328;DHT22;7764;51.430;6.840;2023-04-10T05:40:50;10.10;99.90
15328;DHT22;7764;51.430;6.840;2023-04-10T05:43:18;10.20;99.90
15328;DHT22;7764;51.430;6.840;2023-04-10T05:45:46;10.30;99.90
15328;DHT22;7764;51.430;6.840;2023-04-10T05:48:13;10.50;99.90
15328;DHT22;7764;51.430;6.840;2023-04-10T05:50:40;10.60;99.90
15328;DHT22;7764;51.430;6.840;2023-04-10T05:53:11;10.70;99.90
15328;DHT22;7764;51.430;6.840;2023-04-10T05:55:38;10.90;99.90
15328;DHT22;7764;51.430;6.840;2023-04-10T05:58:05;11.00;99.90
15328;DHT22;7764;51.430;6.840;2023-04-10T06:00:33;11.00;99.90
15328;DHT22;7764;51.430;6.840;2023-04-10T06:03:00;11.10;99.90
15328;DHT22;7764;51.430;6.840;2023-04-10T06:05:27;11.50;99.90
15328;DHT22;7764;51.430;6.840;2023-04-10T06:07:54;11.80;99.90
15328;DHT22;7764;51.430;6.840;2023-04-10T06:10:21;12.00;99.90
15328;DHT22;7764;51.430;6.840;2023-04-10T06:12:47;12.10;99.90
15328;DHT22;7764;51.430;6.840;2023-04-10T06:15:14;12.40;99.90
15328;DHT22;7764;51.430;6.840;2023-04-10T06:17:42;12.40;99.90
15328;DHT22;7764;51.430;6.840;2023-04-10T06:20:10;12.50;99.90
15328;DHT22;7764;51.430;6.840;2023-04-10T06:22:37;12.60;99.90
15328;DHT22;7764;51.430;6.840;2023-04-10T06:25:04;12.50;99.90
15328;DHT22;7764;51.430;6.840;2023-04-10T06:27:33;12.50;99.90
15328;DHT22;7764;51.430;6.840;2023-04-10T06:30:00;12.50;99.90
15328;DHT22;7764;51.430;6.840;2023-04-10T06:32:27;12.50;99.90
15328;DHT22;7764;51.430;6.840;2023-04-10T06:34:55;12.60;99.90
15328;DHT22;7764;51.430;6.840;2023-04-10T06:37:26;12.90;99.90
15328;DHT22;7764;51.430;6.840;2023-04-10T06:40:06;13.10;99.90
15328;DHT22;7764;51.430;6.840;2023-04-10T06:42:34;13.40;99.90
15328;DHT22;7764;51.430;6.840;2023-04-10T06:45:02;13.50;99.90
15328;DHT22;7764;51.430;6.840;2023-04-10T06:47:29;13.60;99.90
15328;DHT22;7764;51.430;6.840;2023-04-10T06:49:58;13.90;99.10
15328;DHT22;7764;51.430;6.840;2023-04-10T06:52:24;14.00;97.90
15328;DHT22;7764;51.430;6.840;2023-04-10T06:54:51;14.00;96.60
15328;DHT22;7764;51.430;6.840;2023-04-10T06:57:18;14.00;96.60
15328;DHT22;7764;51.430;6.840;2023-04-10T06:59:45;14.00;98.20
15328;DHT22;7764;51.430;6.840;2023-04-10T07:02:12;14.10;98.90
15328;DHT22;7764;51.430;6.840;2023-04-10T07:04:40;14.20;96.50
15328;DHT22;7764;51.430;6.840;2023-04-10T07:07:08;14.20;97.30
15328;DHT22;7764;51.430;6.840;2023-04-10T07:09:37;14.00;95.00
15328;DHT22;7764;51.430;6.840;2023-04-10T07:12:04;13.90;98.10
15328;DHT22;7764;51.430;6.840;2023-04-10T07:14:32;13.90;98.30
15328;DHT22;7764;51.430;6.840;2023-04-10T07:17:00;14.20;95.80
15328;DHT22;7764;51.430;6.840;2023-04-10T07:19:27;14.30;98.80
15328;DHT22;7764;51.430;6.840;2023-04-10T07:21:53;14.40;94.60
15328;DHT22;7764;51.430;6.840;2023-04-10T07:24:22;14.40;93.80
15328;DHT22;7764;51.430;6.840;2023-04-10T07:26:49;14.50;94.00
15328;DHT22;7764;51.430;6.840;2023-04-10T07:29:15;14.70;93.90
15328;DHT22;7764;51.430;6.840;2023-04-10T07:31:42;14.70;92.50
15328;DHT22;7764;51.430;6.840;2023-04-10T07:34:10;14.80;92.60
15328;DHT22;7764;51.430;6.840;2023-04-10T07:36:37;14.80;93.00
15328;DHT22;7764;51.430;6.840;2023-04-10T07:39:04;14.60;92.10
15328;DHT22;7764;51.430;6.840;2023-04-10T07:41:32;14.50;92.40
15328;DHT22;7764;51.430;6.840;2023-04-10T07:43:59;14.40;93.20
15328;DHT22;7764;51.430;6.840;2023-04-10T07:46:26;14.10;92.20
15328;DHT22;7764;51.430;6.840;2023-04-10T07:48:53;14.10;95.30
15328;DHT22;7764;51.430;6.840;2023-04-10T07:51:20;14.00;92.90
15328;DHT22;7764;51.430;6.840;2023-04-10T07:53:47;14.20;93.20
15328;DHT22;7764;51.430;6.840;2023-04-10T07:56:15;14.30;93.40
15328;DHT22;7764;51.430;6.840;2023-04-10T07:58:44;14.40;93.50
15328;DHT22;7764;51.430;6.840;2023-04-10T08:01:11;14.50;92.30
15328;DHT22;7764;51.430;6.840;2023-04-10T08:03:38;14.70;91.90
15328;DHT22;7764;51.430;6.840;2023-04-10T08:06:06;15.00;91.10
15328;DHT22;7764;51.430;6.840;2023-04-10T08:08:35;15.10;90.70
15328;DHT22;7764;51.430;6.840;2023-04-10T08:11:03;15.10;90.50
15328;DHT22;7764;51.430;6.840;2023-04-10T08:13:30;15.10;88.70
15328;DHT22;7764;51.430;6.840;2023-04-10T08:15:58;15.00;89.90
15328;DHT22;7764;51.430;6.840;2023-04-10T08:18:25;14.90;91.80
15328;DHT22;7764;51.430;6.840;2023-04-10T08:20:52;15.10;89.20
15328;DHT22;7764;51.430;6.840;2023-04-10T08:23:19;15.10;89.80
15328;DHT22;7764;51.430;6.840;2023-04-10T08:25:46;15.30;88.10
15328;DHT22;7764;51.430;6.840;2023-04-10T08:28:12;15.10;90.10
15328;DHT22;7764;51.430;6.840;2023-04-10T08:30:39;15.20;89.10
15328;DHT22;7764;51.430;6.840;2023-04-10T08:33:08;15.20;88.70
15328;DHT22;7764;51.430;6.840;2023-04-10T08:35:34;15.40;88.80
15328;DHT22;7764;51.430;6.840;2023-04-10T08:38:01;15.40;85.90
15328;DHT22;7764;51.430;6.840;2023-04-10T08:40:28;15.40;85.50
15328;DHT22;7764;51.430;6.840;2023-04-10T08:42:55;15.40;85.90
15328;DHT22;7764;51.430;6.840;2023-04-10T08:45:21;15.50;89.00
15328;DHT22;7764;51.430;6.840;2023-04-10T08:47:49;15.60;86.50
15328;DHT22;7764;51.430;6.840;2023-04-10T08:50:19;15.70;84.90
15328;DHT22;7764;51.430;6.840;2023-04-10T08:52:50;15.70;86.40
15328;DHT22;7764;51.430;6.840;2023-04-10T08:55:17;15.40;83.90
15328;DHT22;7764;51.430;6.840;2023-04-10T08:57:45;15.50;86.60
15328;DHT22;7764;51.430;6.840;2023-04-10T09:00:13;15.60;85.80
15328;DHT22;7764;51.430;6.840;2023-04-10T09:02:40;15.60;84.20
15328;DHT22;7764;51.430;6.840;2023-04-10T09:05:10;15.60;89.20
15328;DHT22;7764;51.430;6.840;2023-04-10T09:07:39;15.60;85.50
15328;DHT22;7764;51.430;6.840;2023-04-10T09:10:07;15.60;84.90
15328;DHT22;7764;51.430;6.840;2023-04-10T09:12:44;15.60;88.10
15328;DHT22;7764;51.430;6.840;2023-04-10T09:15:12;15.60;83.20
15328;DHT22;7764;51.430;6.840;2023-04-10T09:17:54;15.70;86.00
15328;DHT22;7764;51.430;6.840;2023-04-10T09:20:22;15.90;83.60
15328;DHT22;7764;51.430;6.840;2023-04-10T09:22:50;16.10;84.30
15328;DHT22;7764;51.430;6.840;2023-04-10T09:25:34;16.20;82.50
15328;DHT22;7764;51.430;6.840;2023-04-10T09:28:04;16.30;82.50
15328;DHT22;7764;51.430;6.840;2023-04-10T09:30:33;16.50;81.00
15328;DHT22;7764;51.430;6.840;2023-04-10T09:33:00;16.60;80.70
15328;DHT22;7764;51.430;6.840;2023-04-10T09:35:35;16.60;82.30
15328;DHT22;7764;51.430;6.840;2023-04-10T09:38:14;16.70;79.50
15328;DHT22;7764;51.430;6.840;2023-04-10T09:40:42;16.70;80.50
15328;DHT22;7764;51.430;6.840;2023-04-10T09:43:20;16.60;78.40
15328;DHT22;7764;51.430;6.840;2023-04-10T09:45:52;16.40;79.30
15328;DHT22;7764;51.430;6.840;2023-04-10T09:48:19;16.50;80.50
15328;DHT22;7764;51.430;6.840;2023-04-10T09:50:46;16.50;80.50
15328;DHT22;7764;51.430;6.840;2023-04-10T09:53:16;16.50;78.70
15328;DHT22;7764;51.430;6.840;2023-04-10T09:55:44;16.60;78.70
15328;DHT22;7764;51.430;6.840;2023-04-10T09:58:12;16.70;78.10
15328;DHT22;7764;51.430;6.840;2023-04-10T10:00:41;16.70;79.60
15328;DHT22;7764;51.430;6.840;2023-04-10T10:03:10;16.80;79.40
15328;DHT22;7764;51.430;6.840;2023-04-10T10:05:38;16.80;77.40
15328;DHT22;7764;51.430;6.840;2023-04-10T10:08:06;16.80;79.10
15328;DHT22;7764;51.430;6.840;2023-04-10T10:10:37;16.80;78.70
15328;DHT22;7764;51.430;6.840;2023-04-10T10:13:07;17.00;79.60
15328;DHT22;7764;51.430;6.840;2023-04-10T10:15:36;16.90;76.80
15328;DHT22;7764;51.430;6.840;2023-04-10T10:18:10;16.90;75.40
15328;DHT22;7764;51.430;6.840;2023-04-10T10:20:44;16.90;78.00
15328;DHT22;7764;51.430;6.840;2023-04-10T10:23:12;17.20;79.40
15328;DHT22;7764;51.430;6.840;2023-04-10T10:25:41;17.10;74.50
15328;DHT22;7764;51.430;6.840;2023-04-10T10:28:11;17.20;74.50
15328;DHT22;7764;51.430;6.840;2023-04-10T10:30:39;17.20;73.60
15328;DHT22;7764;51.430;6.840;2023-04-10T10:33:06;17.00;72.50
15328;DHT22;7764;51.430;6.840;2023-04-10T10:35:33;17.10;71.80
15328;DHT22;7764;51.430;6.840;2023-04-10T10:38:02;17.20;74.40
15328;DHT22;7764;51.430;6.840;2023-04-10T10:40:31;17.00;72.20
15328;DHT22;7764;51.430;6.840;2023-04-10T10:43:06;16.90;73.30
15328;DHT22;7764;51.430;6.840;2023-04-10T10:45:39;17.10;72.10
15328;DHT22;7764;51.430;6.840;2023-04-10T10:48:06;17.20;72.30
15328;DHT22;7764;51.430;6.840;2023-04-10T10:50:53;17.30;72.30
15328;DHT22;7764;51.430;6.840;2023-04-10T10:53:35;17.20;72.10
15328;DHT22;7764;51.430;6.840;2023-04-10T10:56:34;17.20;71.40
15328;DHT22;7764;51.430;6.840;2023-04-10T10:59:05;17.10;72.30
15328;DHT22;7764;51.430;6.840;2023-04-10T11:01:32;17.00;72.60
15328;DHT22;7764;51.430;6.840;2023-04-10T11:03:59;17.20;70.20
15328;DHT22;7764;51.430;6.840;2023-04-10T11:06:48;17.40;72.20
15328;DHT22;7764;51.430;6.840;2023-04-10T11:09:44;17.30;70.00
15328;DHT22;7764;51.430;6.840;2023-04-10T11:12:11;17.50;69.70
15328;DHT22;7764;51.430;6.840;2023-04-10T11:14:41;17.40;69.90
15328;DHT22;7764;51.430;6.840;2023-04-10T11:17:08;17.30;71.70
15328;DHT22;7764;51.430;6.840;2023-04-10T11:19:58;17.50;71.00
15328;DHT22;7764;51.430;6.840;2023-04-10T11:22:26;17.60;71.60
15328;DHT22;7764;51.430;6.840;2023-04-10T11:24:58;17.70;69.40
15328;DHT22;7764;51.430;6.840;2023-04-10T11:27:46;17.80;68.10
15328;DHT22;7764;51.430;6.840;2023-04-10T11:30:32;17.60;67.10
15328;DHT22;7764;51.430;6.840;2023-04-10T11:33:01;17.60;66.40
15328;DHT22;7764;51.430;6.840;2023-04-10T11:35:29;17.80;66.60
15328;DHT22;7764;51.430;6.840;2023-04-10T11:38:14;17.70;66.40
15328;DHT22;7764;51.430;6.840;2023-04-10T11:41:00;17.80;68.30
15328;DHT22;7764;51.430;6.840;2023-04-10T11:43:29;17.70;68.20
15328;DHT22;7764;51.430;6.840;2023-04-10T11:46:03;17.70;67.60
15328;DHT22;7764;51.430;6.840;2023-04-10T11:48:32;17.80;68.90
15328;DHT22;7764;51.430;6.840;2023-04-10T11:51:05;17.80;66.30
15328;DHT22;7764;51.430;6.840;2023-04-10T11:53:33;18.00;68.70
15328;DHT22;7764;51.430;6.840;2023-04-10T11:56:00;18.30;67.00
15328;DHT22;7764;51.430;6.840;2023-04-10T11:58:28;18.30;66.70
15328;DHT22;7764;51.430;6.840;2023-04-10T12:01:01;18.40;65.60
15328;DHT22;7764;51.430;6.840;2023-04-10T12:03:33;18.50;65.90
15328;DHT22;7764;51.430;6.840;2023-04-10T12:06:01;18.30;65.40
15328;DHT22;7764;51.430;6.840;2023-04-10T12:08:31;18.40;65.30
15328;DHT22;7764;51.430;6.840;2023-04-10T12:10:58;18.30;64.60
15328;DHT22;7764;51.430;6.840;2023-04-10T12:13:26;18.40;64.50
15328;DHT22;7764;51.430;6.840;2023-04-10T12:15:53;18.60;63.80
15328;DHT22;7764;51.430;6.840;2023-04-10T12:18:24;18.50;63.90
15328;DHT22;7764;51.430;6.840;2023-04-10T12:20:52;18.40;62.80
15328;DHT22;7764;51.430;6.840;2023-04-10T12:23:21;18.40;63.20
15328;DHT22;7764;51.430;6.840;2023-04-10T12:25:48;18.40;64.10
15328;DHT22;7764;51.430;6.840;2023-04-10T12:28:17;18.40;62.80
15328;DHT22;7764;51.430;6.840;2023-04-10T12:30:48;18.60;64.70
15328;DHT22;7764;51.430;6.840;2023-04-10T12:33:21;18.70;64.20
15328;DHT22;7764;51.430;6.840;2023-04-10T12:35:49;18.60;62.90
15328;DHT22;7764;51.430;6.840;2023-04-10T12:38:38;18.50;63.30
15328;DHT22;7764;51.430;6.840;2023-04-10T12:41:06;18.50;64.90
15328;DHT22;7764;51.430;6.840;2023-04-10T12:43:34;18.50;63.40
15328;DHT22;7764;51.430;6.840;2023-04-10T12:46:01;18.40;63.40
15328;DHT22;7764;51.430;6.840;2023-04-10T12:48:28;18.10;62.80
15328;DHT22;7764;51.430;6.840;2023-04-10T12:50:57;18.20;62.90
15328;DHT22;7764;51.430;6.840;2023-04-10T12:53:24;18.30;65.30
15328;DHT22;7764;51.430;6.840;2023-04-10T12:56:02;18.30;62.00
15328;DHT22;7764;51.430;6.840;2023-04-10T12:58:31;18.50;63.10
15328;DHT22;7764;51.430;6.840;2023-04-10T13:01:02;18.50;61.60
15328;DHT22;7764;51.430;6.840;2023-04-10T13:03:30;18.60;62.10
15328;DHT22;7764;51.430;6.840;2023-04-10T13:06:00;18.50;62.20
15328;DHT22;7764;51.430;6.840;2023-04-10T13:08:27;18.60;64.00
15328;DHT22;7764;51.430;6.840;2023-04-10T13:10:56;18.70;62.00
15328;DHT22;7764;51.430;6.840;2023-04-10T13:13:27;18.80;62.70
15328;DHT22;7764;51.430;6.840;2023-04-10T13:15:54;18.70;62.60
15328;DHT22;7764;51.430;6.840;2023-04-10T13:18:21;18.70;62.80
15328;DHT22;7764;51.430;6.840;2023-04-10T13:20:48;18.60;62.70
15328;DHT22;7764;51.430;6.840;2023-04-10T13:23:16;18.60;61.20
15328;DHT22;7764;51.430;6.840;2023-04-10T13:25:43;18.60;61.90
15328;DHT22;7764;51.430;6.840;2023-04-10T13:28:09;18.70;62.40
15328;DHT22;7764;51.430;6.840;2023-04-10T13:30:37;18.70;62.80
15328;DHT22;7764;51.430;6.840;2023-04-10T13:33:04;18.60;61.80
15328;DHT22;7764;51.430;6.840;2023-04-10T13:35:31;18.60;62.80
15328;DHT22;7764;51.430;6.840;2023-04-10T13:37:58;18.40;60.90
15328;DHT22;7764;51.430;6.840;2023-04-10T13:40:27;18.50;63.50
15328;DHT22;7764;51.430;6.840;2023-04-10T13:42:53;18.50;63.40
15328;DHT22;7764;51.430;6.840;2023-04-10T13:45:21;18.50;61.90
15328;DHT22;7764;51.430;6.840;2023-04-10T13:47:47;18.50;61.80
15328;DHT22;7764;51.430;6.840;2023-04-10T13:50:14;18.50;62.20
15328;DHT22;7764;51.430;6.840;2023-04-10T13:52:41;18.60;62.30
15328;DHT22;7764;51.430;6.840;2023-04-10T13:55:08;18.60;61.80
15328;DHT22;7764;51.430;6.840;2023-04-10T13:57:37;18.60;62.20
15328;DHT22;7764;51.430;6.840;2023-04-10T14:00:05;18.60;62.10
15328;DHT22;7764;51.430;6.840;2023-04-10T14:02:32;18.60;62.90
15328;DHT22;7764;51.430;6.840;2023-04-10T14:04:59;18.60;60.60
15328;DHT22;7764;51.430;6.840;2023-04-10T14:07:26;18.60;61.50
15328;DHT22;7764;51.430;6.840;2023-04-10T14:09:53;18.60;61.50
15328;DHT22;7764;51.430;6.840;2023-04-10T14:12:20;18.40;60.60
15328;DHT22;7764;51.430;6.840;2023-04-10T14:14:49;18.50;61.60
15328;DHT22;7764;51.430;6.840;2023-04-10T14:17:15;18.40;60.80
15328;DHT22;7764;51.430;6.840;2023-04-10T14:19:42;18.40;62.10
15328;DHT22;7764;51.430;6.840;2023-04-10T14:22:10;18.40;61.70
15328;DHT22;7764;51.430;6.840;2023-04-10T14:24:37;18.50;61.60
15328;DHT22;7764;51.430;6.840;2023-04-10T14:27:04;18.60;63.00
15328;DHT22;7764;51.430;6.840;2023-04-10T14:29:31;18.60;61.40
15328;DHT22;7764;51.430;6.840;2023-04-10T14:31:59;18.60;62.40
15328;DHT22;7764;51.430;6.840;2023-04-10T14:34:26;18.70;61.40
15328;DHT22;7764;51.430;6.840;2023-04-10T14:36:53;18.80;61.80
15328;DHT22;7764;51.430;6.840;2023-04-10T14:39:21;19.00;61.20
15328;DHT22;7764;51.430;6.840;2023-04-10T14:41:49;19.00;60.50
15328;DHT22;7764;51.430;6.840;2023-04-10T14:44:16;19.20;60.80
15328;DHT22;7764;51.430;6.840;2023-04-10T14:46:43;19.20;60.80
15328;DHT22;7764;51.430;6.840;2023-04-10T14:49:12;19.20;59.40
15328;DHT22;7764;51.430;6.840;2023-04-10T14:51:42;19.30;59.00
15328;DHT22;7764;51.430;6.840;2023-04-10T14:54:09;19.10;59.50
15328;DHT22;7764;51.430;6.840;2023-04-10T14:56:36;19.10;58.60
15328;DHT22;7764;51.430;6.840;2023-04-10T14:59:03;19.10;58.50
15328;DHT22;7764;51.430;6.840;2023-04-10T15:01:31;19.00;59.30
15328;DHT22;7764;51.430;6.840;2023-04-10T15:03:58;19.00;59.30
15328;DHT22;7764;51.430;6.840;2023-04-10T15:06:26;18.90;60.10
15328;DHT22;7764;51.430;6.840;2023-04-10T15:08:54;18.80;60.80
15328;DHT22;7764;51.430;6.840;2023-04-10T15:11:21;18.60;60.90
15328;DHT22;7764;51.430;6.840;2023-04-10T15:13:48;18.50;60.60
15328;DHT22;7764;51.430;6.840;2023-04-10T15:16:14;18.50;61.50
15328;DHT22;7764;51.430;6.840;2023-04-10T15:18:41;18.50;61.70
15328;DHT22;7764;51.430;6.840;2023-04-10T15:21:10;18.50;62.60
15328;DHT22;7764;51.430;6.840;2023-04-10T15:23:38;18.60;62.20
15328;DHT22;7764;51.430;6.840;2023-04-10T15:26:09;18.60;62.30
15328;DHT22;7764;51.430;6.840;2023-04-10T15:28:36;18.60;64.10
15328;DHT22;7764;51.430;6.840;2023-04-10T15:31:03;18.60;62.30
15328;DHT22;7764;51.430;6.840;2023-04-10T15:33:30;18.50;61.90
15328;DHT22;7764;51.430;6.840;2023-04-10T15:35:57;18.50;62.70
15328;DHT22;7764;51.430;6.840;2023-04-10T15:38:24;18.40;63.20
15328;DHT22;7764;51.430;6.840;2023-04-10T15:40:54;18.40;63.20
15328;DHT22;7764;51.430;6.840;2023-04-10T15:43:21;18.30;64.20
15328;DHT22;7764;51.430;6.840;2023-04-10T15:45:48;18.30;65.00
15328;DHT22;7764;51.430;6.840;2023-04-10T15:48:15;18.30;64.90
15328;DHT22;7764;51.430;6.840;2023-04-10T15:50:41;18.20;65.10
15328;DHT22;7764;51.430;6.840;2023-04-10T15:53:08;18.20;65.80
15328;DHT22;7764;51.430;6.840;2023-04-10T15:55:38;18.30;67.70
15328;DHT22;7764;51.430;6.840;2023-04-10T15:58:06;18.30;66.10
15328;DHT22;7764;51.430;6.840;2023-04-10T16:00:33;18.30;68.70